Bluegrove, Texas
Current Conditions -  °F | °C
As of 4:35 AM on Friday 24 Oct 2014 (Local Time) from KCWC Reporting Station
Clear Clear  
Wind Chill: 61°   Ceiling: Unl
Heat Index: 61°   Visibility: 10mi
Dew Point: 57°   Wind: 5mph
Humidity: 87%   Direction: 210°SSW
Pressure: 30.09"   Gusts: NA
Location:  33.67°N, 98.23°W
Report Text: KCWC 240935Z AUTO 21004KT 10SM CLR 16/14 A3009 RMK AO2 T01600138
Loading
Personal Weather Stations






























Interactive Weather Map New forecast layout! Learn more

10-Day Weather Forecast

Advertisements
Track Severe Weather on mobile